Time;durP1;ratioP1;P1;durP2;ratioP2;P2;SDS_P1;SDS_P2;PMS_P1;PMS_P2;Temp;Humidity;BMP_temperature;BMP_pressure;BME280_temperature;BME280_humidity;BME280_pressure;Samples;Min_cycle;Max_cycle;Signal;HPM_P1;HPM_P2
2022/09/10 00:01:38;;;;;;;2.17;2.03;;;;;;;;;;5018946;28;20234;-77
2022/09/10 00:04:09;;;;;;;1.23;0.63;;;;;;;;;;5035814;28;20636;-78
2022/09/10 00:06:37;;;;;;;0.57;0.57;;;;;;;;;;5035567;28;20185;-78
2022/09/10 00:09:04;;;;;;;0.70;0.70;;;;;;;;;;5035934;28;20210;-78
2022/09/10 00:11:30;;;;;;;0.80;0.67;;;;;;;;;;5035319;28;20258;-77
2022/09/10 00:13:56;;;;;;;0.80;0.70;;;;;;;;;;5019426;28;20206;-78
2022/09/10 00:16:22;;;;;;;0.70;0.70;;;;;;;;;;5019356;28;20178;-77
2022/09/10 00:18:49;;;;;;;0.77;0.67;;;;;;;;;;5018655;28;20274;-77
2022/09/10 00:21:16;;;;;;;2.20;1.70;;;;;;;;;;5018972;28;20222;-78
2022/09/10 00:23:44;;;;;;;2.60;1.83;;;;;;;;;;5036666;28;20191;-78
2022/09/10 00:26:27;;;;;;;4.10;3.20;;;;;;;;;;5035326;28;20175;-78
2022/09/10 00:28:54;;;;;;;1.40;1.20;;;;;;;;;;5019024;28;20189;-78
2022/09/10 00:31:21;;;;;;;7.00;4.30;;;;;;;;;;5035268;28;20695;-77
2022/09/10 00:33:49;;;;;;;2.77;1.90;;;;;;;;;;5034678;28;20206;-78
2022/09/10 00:36:16;;;;;;;8.50;6.37;;;;;;;;;;5036978;28;20173;-78
2022/09/10 00:38:43;;;;;;;2.07;1.80;;;;;;;;;;5036104;28;20252;-78
2022/09/10 00:41:09;;;;;;;2.53;1.20;;;;;;;;;;5034763;28;20277;-78
2022/09/10 00:43:48;;;;;;;3.50;1.80;;;;;;;;;;5018252;28;20212;-77
2022/09/10 00:46:18;;;;;;;2.20;1.77;;;;;;;;;;5035189;28;20238;-76
2022/09/10 00:48:44;;;;;;;1.80;1.30;;;;;;;;;;5034361;28;20190;-76
2022/09/10 00:51:10;;;;;;;2.03;1.20;;;;;;;;;;5018438;28;20198;-78
2022/09/10 00:53:36;;;;;;;2.57;1.40;;;;;;;;;;5018134;28;20308;-78
2022/09/10 00:56:04;;;;;;;2.87;1.87;;;;;;;;;;5018740;28;20174;-78
2022/09/10 00:58:30;;;;;;;1.20;0.93;;;;;;;;;;5034516;28;20265;-78
2022/09/10 01:01:00;;;;;;;2.00;1.13;;;;;;;;;;5018398;28;20746;-78
2022/09/10 01:03:30;;;;;;;1.97;1.50;;;;;;;;;;5035192;28;20202;-77
2022/09/10 01:05:57;;;;;;;3.43;2.50;;;;;;;;;;5034687;28;20221;-78
2022/09/10 01:08:23;;;;;;;1.63;1.40;;;;;;;;;;5036097;28;20678;-78
2022/09/10 01:10:58;;;;;;;1.47;1.13;;;;;;;;;;5034396;28;20199;-77
2022/09/10 01:13:30;;;;;;;1.47;0.93;;;;;;;;;;5034633;28;20236;-78
2022/09/10 01:15:59;;;;;;;1.00;0.90;;;;;;;;;;5034679;28;20229;-78
2022/09/10 01:18:29;;;;;;;1.67;0.90;;;;;;;;;;5034314;28;20170;-78
2022/09/10 01:20:55;;;;;;;1.47;0.90;;;;;;;;;;5035420;28;20301;-78
2022/09/10 01:23:44;;;;;;;1.00;0.87;;;;;;;;;;5034552;28;20249;-77
2022/09/10 01:26:29;;;;;;;0.97;0.80;;;;;;;;;;5029426;28;20243;-78
2022/09/10 01:29:01;;;;;;;1.20;1.10;;;;;;;;;;5034139;28;20251;-78
2022/09/10 01:31:34;;;;;;;1.37;1.00;;;;;;;;;;5034095;28;20204;-77
2022/09/10 01:34:08;;;;;;;3.03;1.10;;;;;;;;;;5033858;28;20316;-78
2022/09/10 01:36:37;;;;;;;2.43;0.87;;;;;;;;;;5034024;28;20182;-78
2022/09/10 01:39:03;;;;;;;1.67;1.00;;;;;;;;;;5034111;28;20182;-78
2022/09/10 01:41:30;;;;;;;2.87;1.10;;;;;;;;;;5017552;28;20205;-77
2022/09/10 01:43:56;;;;;;;2.67;1.00;;;;;;;;;;5017319;28;20243;-77
2022/09/10 01:46:31;;;;;;;2.40;1.13;;;;;;;;;;5017601;28;20246;-77
2022/09/10 01:49:01;;;;;;;1.87;1.20;;;;;;;;;;5034119;28;20181;-78
2022/09/10 01:51:39;;;;;;;1.40;1.10;;;;;;;;;;5033587;28;20234;-78
2022/09/10 01:54:13;;;;;;;1.20;1.10;;;;;;;;;;5033817;28;20220;-78
2022/09/10 01:56:50;;;;;;;1.97;1.20;;;;;;;;;;5033253;28;20216;-78
2022/09/10 01:59:35;;;;;;;2.03;1.00;;;;;;;;;;5033710;28;20577;-78
2022/09/10 02:02:06;;;;;;;2.03;1.20;;;;;;;;;;5033755;28;20198;-78
2022/09/10 02:04:34;;;;;;;2.53;1.10;;;;;;;;;;5033548;28;20185;-77
2022/09/10 02:07:03;;;;;;;1.70;1.10;;;;;;;;;;5033590;28;20179;-77
2022/09/10 02:09:29;;;;;;;2.77;1.10;;;;;;;;;;5017000;28;20201;-78
2022/09/10 02:11:55;;;;;;;1.73;1.40;;;;;;;;;;5016927;28;20209;-78
2022/09/10 02:14:22;;;;;;;1.90;1.10;;;;;;;;;;5033734;28;20668;-78
2022/09/10 02:16:53;;;;;;;1.80;1.10;;;;;;;;;;5017628;28;20179;-78
2022/09/10 02:19:19;;;;;;;2.23;1.50;;;;;;;;;;5017214;28;20206;-77
2022/09/10 02:21:45;;;;;;;1.40;1.30;;;;;;;;;;5033310;28;20217;-78
2022/09/10 02:24:12;;;;;;;2.53;1.37;;;;;;;;;;5033682;28;20516;-78
2022/09/10 02:26:40;;;;;;;1.90;1.20;;;;;;;;;;5033411;28;20193;-78
2022/09/10 02:29:07;;;;;;;1.77;1.03;;;;;;;;;;5034404;28;20178;-77
2022/09/10 02:31:34;;;;;;;1.67;1.20;;;;;;;;;;5033687;28;20217;-78
2022/09/10 02:34:02;;;;;;;2.07;1.17;;;;;;;;;;5032880;28;20206;-78
2022/09/10 02:36:30;;;;;;;2.83;1.20;;;;;;;;;;5017466;28;20178;-77
2022/09/10 02:38:56;;;;;;;2.03;1.30;;;;;;;;;;5033263;28;20659;-78
2022/09/10 02:41:24;;;;;;;2.20;1.30;;;;;;;;;;5016858;28;20208;-78
2022/09/10 02:43:53;;;;;;;2.60;1.60;;;;;;;;;;5017153;28;20186;-78
2022/09/10 02:46:19;;;;;;;1.97;1.60;;;;;;;;;;5033045;28;20624;-78
2022/09/10 02:48:45;;;;;;;1.80;1.67;;;;;;;;;;5016294;28;20273;-77
2022/09/10 02:51:12;;;;;;;3.50;2.07;;;;;;;;;;5016789;28;20241;-78
2022/09/10 02:53:38;;;;;;;2.87;1.90;;;;;;;;;;5033282;28;20201;-78
2022/09/10 02:56:04;;;;;;;3.93;1.90;;;;;;;;;;5017240;28;20232;-78
2022/09/10 02:58:31;;;;;;;2.10;1.60;;;;;;;;;;5033465;28;20646;-78
2022/09/10 03:01:12;;;;;;;2.17;1.60;;;;;;;;;;5016760;28;20198;-78
2022/09/10 03:03:38;;;;;;;3.10;1.67;;;;;;;;;;5017668;28;20201;-78
2022/09/10 03:06:05;;;;;;;3.10;1.97;;;;;;;;;;5033031;28;20194;-77
2022/09/10 03:08:31;;;;;;;2.77;1.83;;;;;;;;;;5033358;28;20539;-78
2022/09/10 03:10:58;;;;;;;2.63;1.80;;;;;;;;;;5016010;28;20313;-78
2022/09/10 03:13:24;;;;;;;2.70;2.10;;;;;;;;;;5016750;28;20213;-78
2022/09/10 03:15:51;;;;;;;3.17;2.07;;;;;;;;;;5034004;28;20767;-78
2022/09/10 03:18:18;;;;;;;3.80;2.20;;;;;;;;;;5017019;28;20201;-78
2022/09/10 03:20:45;;;;;;;2.50;2.23;;;;;;;;;;5032354;28;20210;-77
2022/09/10 03:23:11;;;;;;;3.83;2.03;;;;;;;;;;5037859;28;20660;-78
2022/09/10 03:25:37;;;;;;;3.40;1.80;;;;;;;;;;5037754;28;20537;-78
2022/09/10 03:28:03;;;;;;;4.00;2.20;;;;;;;;;;5020418;28;20186;-78
2022/09/10 03:30:29;;;;;;;4.93;2.30;;;;;;;;;;5019977;28;20288;-78
2022/09/10 03:32:56;;;;;;;3.97;2.07;;;;;;;;;;5036511;28;20206;-78
2022/09/10 03:35:22;;;;;;;3.20;2.40;;;;;;;;;;5036565;28;20167;-78
2022/09/10 03:37:48;;;;;;;3.17;2.40;;;;;;;;;;5036576;28;20265;-77
2022/09/10 03:40:14;;;;;;;2.90;2.00;;;;;;;;;;5036277;28;20245;-77
2022/09/10 03:42:41;;;;;;;2.60;2.40;;;;;;;;;;5035997;28;20260;-78
2022/09/10 03:45:08;;;;;;;3.27;2.50;;;;;;;;;;5019667;28;20244;-78
2022/09/10 03:47:36;;;;;;;3.03;2.20;;;;;;;;;;5036605;28;20197;-78
2022/09/10 03:50:03;;;;;;;2.80;2.60;;;;;;;;;;5035970;28;20228;-77
2022/09/10 03:52:29;;;;;;;2.60;2.00;;;;;;;;;;5036395;28;20178;-77
2022/09/10 03:54:55;;;;;;;2.47;2.23;;;;;;;;;;5019707;28;20531;-78
2022/09/10 03:57:21;;;;;;;3.30;2.27;;;;;;;;;;5020228;28;20202;-78
2022/09/10 03:59:48;;;;;;;4.77;2.47;;;;;;;;;;5035213;28;20174;-77
2022/09/10 04:02:14;;;;;;;3.27;2.10;;;;;;;;;;5036320;28;20174;-77
2022/09/10 04:04:41;;;;;;;2.40;2.20;;;;;;;;;;5019650;28;20185;-77
2022/09/10 04:07:08;;;;;;;3.00;2.57;;;;;;;;;;5035878;28;20690;-78
2022/09/10 04:09:34;;;;;;;3.00;2.40;;;;;;;;;;5036114;28;20412;-76
2022/09/10 04:12:01;;;;;;;3.67;2.50;;;;;;;;;;5035675;28;20225;-77
2022/09/10 04:14:28;;;;;;;3.93;2.60;;;;;;;;;;5019667;28;20754;-77
2022/09/10 04:16:54;;;;;;;3.73;2.70;;;;;;;;;;5036044;28;20179;-78
2022/09/10 04:19:20;;;;;;;4.80;2.93;;;;;;;;;;5035642;28;20190;-76
2022/09/10 04:21:47;;;;;;;3.30;3.00;;;;;;;;;;5017767;28;20221;-76
2022/09/10 04:24:13;;;;;;;4.23;3.20;;;;;;;;;;5033343;28;20258;-77
2022/09/10 04:26:39;;;;;;;3.80;2.70;;;;;;;;;;5034293;28;20185;-77
2022/09/10 04:29:05;;;;;;;2.80;2.50;;;;;;;;;;5034284;28;20178;-77
2022/09/10 04:41:54;;;;;;;2.70;2.50;;;;;;;;;;5287847;22;20220;-74
2022/09/10 04:44:20;;;;;;;2.67;2.47;;;;;;;;;;5036475;28;20181;-74
2022/09/10 04:46:46;;;;;;;4.53;2.70;;;;;;;;;;5036028;28;20213;-74
2022/09/10 04:49:13;;;;;;;3.17;2.40;;;;;;;;;;5035941;28;20277;-74
2022/09/10 04:51:39;;;;;;;3.70;2.63;;;;;;;;;;5052256;28;20200;-77
2022/09/10 04:54:05;;;;;;;2.93;2.70;;;;;;;;;;5052433;28;20223;-76
2022/09/10 04:56:31;;;;;;;4.70;2.70;;;;;;;;;;5052953;28;20174;-78
2022/09/10 04:58:57;;;;;;;3.17;2.87;;;;;;;;;;5035610;28;20177;-78
2022/09/10 05:01:23;;;;;;;3.67;2.40;;;;;;;;;;5053414;28;20588;-78
2022/09/10 05:03:49;;;;;;;3.30;2.50;;;;;;;;;;5035703;28;20636;-78
2022/09/10 05:06:15;;;;;;;3.60;2.13;;;;;;;;;;5035469;28;20284;-78
2022/09/10 05:08:41;;;;;;;4.87;2.77;;;;;;;;;;5035684;28;20193;-77
2022/09/10 05:11:07;;;;;;;3.80;2.40;;;;;;;;;;5035427;28;20212;-77
2022/09/10 05:13:33;;;;;;;3.87;2.43;;;;;;;;;;5052051;28;20209;-77
2022/09/10 05:16:00;;;;;;;3.87;2.50;;;;;;;;;;5035365;28;20670;-77
2022/09/10 05:18:26;;;;;;;3.40;2.60;;;;;;;;;;5035419;28;20177;-77
2022/09/10 05:20:52;;;;;;;2.70;2.50;;;;;;;;;;5051378;28;20201;-77
2022/09/10 05:23:18;;;;;;;2.73;2.40;;;;;;;;;;5051855;28;20664;-77
2022/09/10 05:25:46;;;;;;;2.67;2.43;;;;;;;;;;5051691;28;20663;-77
2022/09/10 05:28:12;;;;;;;2.93;2.50;;;;;;;;;;5051849;28;20185;-77
2022/09/10 05:30:38;;;;;;;2.63;2.30;;;;;;;;;;5051482;28;20573;-77
2022/09/10 05:33:04;;;;;;;2.60;2.23;;;;;;;;;;5034698;28;20209;-78
2022/09/10 05:35:32;;;;;;;3.30;2.57;;;;;;;;;;5034926;28;20181;-77
2022/09/10 05:37:59;;;;;;;4.40;2.50;;;;;;;;;;5035177;28;20182;-77
2022/09/10 05:40:28;;;;;;;2.80;2.50;;;;;;;;;;5051432;28;20205;-77
2022/09/10 05:42:54;;;;;;;5.20;2.73;;;;;;;;;;5051364;28;20177;-77
2022/09/10 05:45:20;;;;;;;2.70;2.50;;;;;;;;;;5051344;28;20177;-77
2022/09/10 05:47:46;;;;;;;3.23;2.47;;;;;;;;;;5034786;28;20185;-77
2022/09/10 05:50:13;;;;;;;3.53;2.50;;;;;;;;;;5034501;28;20671;-77
2022/09/10 05:52:39;;;;;;;4.17;2.80;;;;;;;;;;5051113;28;20178;-77
2022/09/10 05:55:05;;;;;;;3.17;2.70;;;;;;;;;;5051125;28;20169;-77
2022/09/10 05:57:31;;;;;;;3.47;2.87;;;;;;;;;;5051243;28;20597;-77
2022/09/10 05:59:58;;;;;;;4.67;3.00;;;;;;;;;;5050815;28;20701;-77
2022/09/10 06:02:25;;;;;;;4.30;3.10;;;;;;;;;;5051089;28;20690;-77
2022/09/10 06:04:51;;;;;;;4.93;2.87;;;;;;;;;;5034549;28;20189;-77
2022/09/10 06:07:17;;;;;;;3.67;2.93;;;;;;;;;;5050904;28;20177;-77
2022/09/10 06:09:43;;;;;;;3.73;2.80;;;;;;;;;;5050928;28;20188;-77
2022/09/10 06:12:09;;;;;;;4.40;2.90;;;;;;;;;;5034340;28;20304;-77
2022/09/10 06:14:35;;;;;;;3.50;3.00;;;;;;;;;;5034387;28;20201;-77
2022/09/10 06:17:01;;;;;;;3.40;3.10;;;;;;;;;;5050821;28;20663;-77
2022/09/10 06:19:28;;;;;;;3.63;3.20;;;;;;;;;;5052086;28;20181;-77
2022/09/10 06:21:54;;;;;;;3.77;3.10;;;;;;;;;;5034292;28;20193;-77
2022/09/10 06:24:19;;;;;;;5.13;3.67;;;;;;;;;;5034374;28;20642;-77
2022/09/10 06:26:49;;;;;;;3.60;3.27;;;;;;;;;;5050963;28;20179;-77
2022/09/10 06:29:15;;;;;;;4.83;3.60;;;;;;;;;;5034485;28;20192;-79
2022/09/10 06:31:41;;;;;;;4.20;3.80;;;;;;;;;;5034248;28;20209;-78
2022/09/10 06:34:08;;;;;;;4.40;3.90;;;;;;;;;;5034207;28;20221;-78
2022/09/10 06:36:34;;;;;;;5.20;4.00;;;;;;;;;;5051177;28;20636;-79
2022/09/10 06:39:02;;;;;;;5.03;3.90;;;;;;;;;;5035339;28;20234;-78
2022/09/10 06:41:29;;;;;;;4.10;3.70;;;;;;;;;;5050835;28;20292;-79
2022/09/10 06:43:56;;;;;;;4.20;3.70;;;;;;;;;;5052003;28;20269;-78
2022/09/10 06:46:22;;;;;;;4.80;3.97;;;;;;;;;;5034589;28;20186;-78
2022/09/10 06:48:48;;;;;;;3.90;3.50;;;;;;;;;;5051939;28;20239;-78
2022/09/10 06:51:14;;;;;;;3.97;3.60;;;;;;;;;;5040937;28;20700;-79
2022/09/10 06:53:41;;;;;;;4.50;3.80;;;;;;;;;;5048501;28;20241;-78
2022/09/10 06:56:09;;;;;;;7.00;3.70;;;;;;;;;;5051488;28;20636;-78
2022/09/10 06:58:35;;;;;;;4.83;3.70;;;;;;;;;;5054963;28;20548;-78
2022/09/10 07:01:07;;;;;;;5.53;3.80;;;;;;;;;;5053353;28;20234;-78
2022/09/10 07:03:34;;;;;;;4.70;3.67;;;;;;;;;;5048332;28;20186;-79
2022/09/10 07:06:08;;;;;;;4.60;3.63;;;;;;;;;;5054328;28;20170;-78
2022/09/10 07:08:34;;;;;;;4.63;3.97;;;;;;;;;;5037984;28;20241;-78
2022/09/10 07:11:02;;;;;;;6.27;4.50;;;;;;;;;;5054072;28;20205;-78
2022/09/10 07:13:28;;;;;;;3.80;3.37;;;;;;;;;;5054160;28;20201;-77
2022/09/10 07:18:59;;;;;;;4.63;3.43;;;;;;;;;;5055587;28;20276;-78
2022/09/10 07:21:26;;;;;;;3.87;3.27;;;;;;;;;;5054523;28;20193;-78
2022/09/10 07:23:57;;;;;;;4.93;3.30;;;;;;;;;;5054488;28;20178;-78
2022/09/10 07:26:39;;;;;;;4.50;3.40;;;;;;;;;;5054588;28;20209;-78
2022/09/10 07:29:06;;;;;;;5.03;3.40;;;;;;;;;;5055556;28;20174;-78
2022/09/10 07:31:33;;;;;;;4.83;3.40;;;;;;;;;;5054558;28;20201;-78
2022/09/10 07:34:00;;;;;;;6.10;3.17;;;;;;;;;;5054484;28;20208;-78
2022/09/10 07:36:27;;;;;;;4.50;3.10;;;;;;;;;;5054379;28;20181;-78
2022/09/10 07:38:54;;;;;;;6.50;3.17;;;;;;;;;;5037704;28;20570;-78
2022/09/10 07:41:20;;;;;;;4.93;2.97;;;;;;;;;;5054179;28;20221;-78
2022/09/10 07:43:48;;;;;;;3.83;2.97;;;;;;;;;;5037976;28;20181;-78
2022/09/10 07:46:20;;;;;;;3.77;2.70;;;;;;;;;;5054135;28;20182;-78
2022/09/10 07:48:50;;;;;;;3.70;2.80;;;;;;;;;;5053898;28;20166;-79
2022/09/10 07:51:18;;;;;;;2.67;2.30;;;;;;;;;;5038146;28;20206;-78
2022/09/10 07:53:45;;;;;;;4.90;3.03;;;;;;;;;;5037793;28;20202;-78
2022/09/10 07:56:11;;;;;;;3.53;3.23;;;;;;;;;;5053989;28;20622;-78
2022/09/10 07:58:38;;;;;;;3.43;3.00;;;;;;;;;;5054120;28;20178;-78
2022/09/10 08:01:09;;;;;;;3.90;3.07;;;;;;;;;;5037212;28;20328;-78
2022/09/10 08:03:35;;;;;;;3.90;2.57;;;;;;;;;;5053706;28;20178;-78
2022/09/10 08:06:01;;;;;;;2.77;2.57;;;;;;;;;;5054948;28;20220;-78
2022/09/10 08:08:31;;;;;;;3.20;2.90;;;;;;;;;;5036174;28;20188;-78
2022/09/10 08:11:11;;;;;;;2.93;2.50;;;;;;;;;;5053402;28;20204;-78
2022/09/10 08:13:41;;;;;;;3.00;2.70;;;;;;;;;;5053838;28;20613;-78
2022/09/10 08:16:11;;;;;;;3.10;2.83;;;;;;;;;;5053119;28;20185;-78
2022/09/10 08:18:38;;;;;;;2.83;2.63;;;;;;;;;;5036824;28;20194;-78
2022/09/10 08:21:04;;;;;;;3.03;2.73;;;;;;;;;;5054693;28;20186;-78
2022/09/10 08:23:31;;;;;;;3.37;2.70;;;;;;;;;;5053448;28;20276;-78
2022/09/10 08:29:01;;;;;;;3.20;2.90;;;;;;;;;;5054448;28;20215;-78
2022/09/10 08:31:27;;;;;;;3.80;2.90;;;;;;;;;;5035631;28;20197;-78
2022/09/10 08:33:54;;;;;;;3.40;2.77;;;;;;;;;;5066013;28;20204;-78
2022/09/10 08:36:20;;;;;;;3.50;3.17;;;;;;;;;;5053023;28;20624;-78
2022/09/10 08:38:47;;;;;;;3.33;2.90;;;;;;;;;;5036449;28;20202;-78
2022/09/10 08:41:22;;;;;;;3.87;3.30;;;;;;;;;;5052965;28;20206;-78
2022/09/10 08:43:51;;;;;;;4.33;3.43;;;;;;;;;;5054346;28;20176;-78
2022/09/10 08:46:28;;;;;;;3.30;3.00;;;;;;;;;;5036056;28;20624;-78
2022/09/10 08:49:08;;;;;;;3.27;2.97;;;;;;;;;;5036649;28;20178;-78
2022/09/10 08:51:41;;;;;;;4.33;3.10;;;;;;;;;;5052709;28;20200;-78
2022/09/10 08:54:13;;;;;;;3.17;2.87;;;;;;;;;;5053125;28;20574;-78
2022/09/10 08:56:41;;;;;;;3.03;2.70;;;;;;;;;;5052735;28;20616;-78
2022/09/10 08:59:16;;;;;;;3.07;2.27;;;;;;;;;;5053848;28;20170;-78
2022/09/10 09:01:45;;;;;;;3.20;2.90;;;;;;;;;;5052530;28;20201;-78
2022/09/10 09:04:17;;;;;;;4.20;2.50;;;;;;;;;;5053974;28;20176;-78
2022/09/10 09:06:51;;;;;;;2.70;2.50;;;;;;;;;;5052507;28;20208;-78
2022/09/10 09:09:17;;;;;;;2.93;2.60;;;;;;;;;;5052706;28;20208;-78
2022/09/10 09:11:52;;;;;;;2.73;2.30;;;;;;;;;;5052623;28;20197;-78
2022/09/10 09:14:21;;;;;;;3.97;2.53;;;;;;;;;;5052279;28;20675;-78
2022/09/10 09:16:55;;;;;;;3.20;2.27;;;;;;;;;;5052310;28;20182;-78
2022/09/10 09:19:28;;;;;;;2.60;2.40;;;;;;;;;;5052176;28;20165;-78
2022/09/10 09:21:55;;;;;;;3.10;2.03;;;;;;;;;;5052539;28;20207;-78
2022/09/10 09:24:23;;;;;;;2.00;1.90;;;;;;;;;;5035721;28;20189;-78
2022/09/10 09:26:49;;;;;;;1.70;1.60;;;;;;;;;;5052130;28;20674;-78
2022/09/10 09:29:27;;;;;;;2.10;1.90;;;;;;;;;;5035805;28;20177;-78
2022/09/10 09:31:57;;;;;;;2.23;2.00;;;;;;;;;;5051960;28;20691;-78
2022/09/10 09:34:46;;;;;;;2.20;1.83;;;;;;;;;;5051872;28;20619;-78
2022/09/10 09:37:17;;;;;;;2.33;2.13;;;;;;;;;;5052344;28;20529;-78
2022/09/10 09:40:05;;;;;;;2.53;1.97;;;;;;;;;;5051715;28;20180;-78
2022/09/10 09:42:37;;;;;;;2.47;2.10;;;;;;;;;;5051800;28;20177;-78
2022/09/10 09:45:03;;;;;;;2.40;1.87;;;;;;;;;;5051745;28;20174;-78
2022/09/10 09:47:29;;;;;;;2.13;1.80;;;;;;;;;;5052096;28;20252;-78
2022/09/10 09:49:55;;;;;;;1.60;1.50;;;;;;;;;;5035326;28;20185;-78
2022/09/10 09:52:23;;;;;;;2.30;2.10;;;;;;;;;;5051655;28;20579;-78
2022/09/10 09:54:53;;;;;;;2.60;1.80;;;;;;;;;;5051400;28;20263;-78
2022/09/10 09:57:20;;;;;;;2.10;1.90;;;;;;;;;;5051774;28;20239;-78
2022/09/10 09:59:47;;;;;;;2.23;1.90;;;;;;;;;;5052064;28;20265;-80
2022/09/10 10:02:15;;;;;;;1.60;1.50;;;;;;;;;;5052817;28;20245;-78
2022/09/10 10:04:53;;;;;;;5.77;5.27;;;;;;;;;;5035337;28;20575;-78
2022/09/10 10:07:24;;;;;;;8.63;6.10;;;;;;;;;;5052849;28;20153;-78
2022/09/10 10:09:51;;;;;;;12.37;9.03;;;;;;;;;;5051603;28;20170;-78
2022/09/10 10:12:20;;;;;;;5.77;4.33;;;;;;;;;;5051661;28;20201;-78
2022/09/10 10:14:46;;;;;;;23.57;17.57;;;;;;;;;;5052644;28;20200;-77
2022/09/10 10:17:27;;;;;;;21.27;13.30;;;;;;;;;;5035352;28;20178;-77
2022/09/10 10:19:57;;;;;;;5.03;3.77;;;;;;;;;;5051288;28;20636;-78
2022/09/10 10:22:24;;;;;;;4.90;2.70;;;;;;;;;;5052620;28;20544;-76
2022/09/10 10:24:52;;;;;;;1.83;1.60;;;;;;;;;;5051435;28;20180;-78
2022/09/10 10:27:22;;;;;;;2.53;1.57;;;;;;;;;;5023562;28;20193;-78
2022/09/10 10:30:06;;;;;;;2.50;1.70;;;;;;;;;;5031127;28;20277;-78
2022/09/10 10:32:41;;;;;;;1.70;1.60;;;;;;;;;;5031041;28;20321;-77
2022/09/10 10:35:10;;;;;;;1.60;1.50;;;;;;;;;;5031265;28;20177;-77
2022/09/10 10:37:49;;;;;;;2.07;1.60;;;;;;;;;;5031549;28;20174;-77
2022/09/10 10:40:18;;;;;;;2.13;1.40;;;;;;;;;;5032187;28;20268;-78
2022/09/10 10:43:03;;;;;;;2.40;1.60;;;;;;;;;;5031303;28;20551;-78
2022/09/10 10:45:39;;;;;;;1.50;1.40;;;;;;;;;;5031017;28;20201;-78
2022/09/10 10:48:18;;;;;;;1.40;1.30;;;;;;;;;;5031313;28;20202;-77
2022/09/10 10:50:53;;;;;;;2.10;1.20;;;;;;;;;;5031033;28;20197;-78
2022/09/10 10:53:28;;;;;;;2.20;1.50;;;;;;;;;;5031256;28;20247;-77
2022/09/10 10:56:13;;;;;;;1.87;1.23;;;;;;;;;;5057287;22;20231;-77
2022/09/10 10:58:58;;;;;;;1.50;1.30;;;;;;;;;;5062295;28;20191;-77
2022/09/10 11:01:26;;;;;;;2.03;1.10;;;;;;;;;;5062609;28;20181;-77
2022/09/10 11:03:59;;;;;;;1.97;1.17;;;;;;;;;;5042176;28;20273;-76
2022/09/10 11:06:29;;;;;;;1.27;1.03;;;;;;;;;;5063209;28;20202;-77
2022/09/10 11:09:01;;;;;;;1.17;1.00;;;;;;;;;;5067005;28;20208;-77
2022/09/10 11:11:39;;;;;;;3.20;1.30;;;;;;;;;;5051759;28;20227;-77
2022/09/10 11:14:05;;;;;;;1.17;1.07;;;;;;;;;;5066947;28;20209;-77
2022/09/10 11:16:53;;;;;;;2.13;1.10;;;;;;;;;;5051480;28;20200;-77
2022/09/10 11:19:22;;;;;;;1.53;1.30;;;;;;;;;;5050223;28;20176;-77
2022/09/10 11:21:54;;;;;;;2.17;1.30;;;;;;;;;;5051853;28;20185;-77
2022/09/10 11:24:26;;;;;;;1.77;1.20;;;;;;;;;;5070466;28;20639;-78
2022/09/10 11:26:55;;;;;;;1.80;1.40;;;;;;;;;;5086853;28;20197;-77
2022/09/10 11:29:33;;;;;;;2.70;1.50;;;;;;;;;;5071405;28;20203;-77
2022/09/10 11:32:06;;;;;;;3.27;1.57;;;;;;;;;;5087385;28;20250;-78
2022/09/10 11:34:33;;;;;;;1.80;1.70;;;;;;;;;;5087208;28;20211;-77
2022/09/10 11:37:19;;;;;;;2.37;1.80;;;;;;;;;;5071569;28;20231;-77
2022/09/10 11:39:48;;;;;;;1.83;1.70;;;;;;;;;;5069807;28;20207;-77
2022/09/10 11:42:36;;;;;;;3.33;1.80;;;;;;;;;;5087692;28;20169;-78
2022/09/10 11:45:06;;;;;;;2.10;1.90;;;;;;;;;;5072369;28;20586;-77
2022/09/10 11:47:32;;;;;;;2.67;2.20;;;;;;;;;;5090400;28;20177;-77
2022/09/10 11:50:05;;;;;;;2.73;2.10;;;;;;;;;;5090921;28;20181;-78
2022/09/10 11:52:33;;;;;;;3.47;2.23;;;;;;;;;;5090515;28;20204;-77
2022/09/10 11:55:01;;;;;;;2.83;2.00;;;;;;;;;;5090165;28;20205;-78
2022/09/10 11:57:27;;;;;;;3.63;2.20;;;;;;;;;;5090394;28;20651;-78
2022/09/10 12:00:03;;;;;;;3.97;2.00;;;;;;;;;;5089634;28;20208;-77
2022/09/10 12:02:48;;;;;;;2.00;1.60;;;;;;;;;;5067209;28;20176;-78
2022/09/10 12:05:17;;;;;;;2.63;1.70;;;;;;;;;;5090502;28;20201;-77
2022/09/10 12:07:43;;;;;;;1.93;1.60;;;;;;;;;;5073247;28;20268;-77
2022/09/10 12:10:29;;;;;;;2.10;1.90;;;;;;;;;;5073235;28;20234;-77
2022/09/10 12:12:56;;;;;;;1.80;1.47;;;;;;;;;;5073100;28;20204;-77
2022/09/10 12:15:23;;;;;;;3.10;2.13;;;;;;;;;;5073042;28;20242;-77
2022/09/10 12:17:52;;;;;;;1.83;1.70;;;;;;;;;;5056371;28;20174;-77
2022/09/10 12:20:28;;;;;;;2.63;2.10;;;;;;;;;;5072804;28;20224;-78
2022/09/10 12:22:55;;;;;;;2.93;2.20;;;;;;;;;;5073028;28;20176;-77
2022/09/10 12:25:21;;;;;;;2.23;2.00;;;;;;;;;;5056382;28;20196;-77
2022/09/10 12:27:50;;;;;;;2.37;2.17;;;;;;;;;;5072931;28;20184;-77
2022/09/10 12:30:26;;;;;;;2.27;2.10;;;;;;;;;;5072738;28;20173;-77
2022/09/10 12:32:52;;;;;;;2.87;1.70;;;;;;;;;;5072912;28;20545;-77
2022/09/10 12:35:34;;;;;;;2.17;1.30;;;;;;;;;;5072662;28;20201;-77
2022/09/10 12:38:19;;;;;;;3.07;1.70;;;;;;;;;;5074280;28;20517;-78
2022/09/10 12:40:48;;;;;;;2.87;1.80;;;;;;;;;;5072517;28;20173;-77
2022/09/10 12:43:33;;;;;;;2.53;1.70;;;;;;;;;;5072757;28;20231;-78
2022/09/10 12:46:25;;;;;;;2.73;2.20;;;;;;;;;;5073827;28;20271;-77
2022/09/10 12:48:54;;;;;;;2.93;1.80;;;;;;;;;;5070006;28;20189;-77
2022/09/10 12:51:30;;;;;;;2.53;2.30;;;;;;;;;;5072614;28;20177;-77
2022/09/10 12:54:15;;;;;;;3.27;2.00;;;;;;;;;;5072969;28;20200;-77
2022/09/10 12:56:54;;;;;;;4.13;2.03;;;;;;;;;;5072177;28;20216;-77
2022/09/10 12:59:20;;;;;;;3.43;1.93;;;;;;;;;;5072018;28;20168;-77
2022/09/10 13:01:47;;;;;;;4.03;2.20;;;;;;;;;;5072430;28;20230;-77
2022/09/10 13:04:31;;;;;;;2.63;2.10;;;;;;;;;;5072458;28;20173;-77
2022/09/10 13:07:19;;;;;;;4.83;2.27;;;;;;;;;;5055704;28;20205;-77
2022/09/10 13:09:46;;;;;;;3.60;2.63;;;;;;;;;;5071820;28;20250;-77
2022/09/10 13:12:21;;;;;;;3.13;2.20;;;;;;;;;;5072113;28;20188;-77
2022/09/10 13:14:52;;;;;;;2.33;2.13;;;;;;;;;;5072097;28;20575;-77
2022/09/10 13:17:37;;;;;;;3.70;2.10;;;;;;;;;;5072021;28;20176;-77
2022/09/10 13:20:13;;;;;;;2.40;1.97;;;;;;;;;;5071659;28;20179;-77
2022/09/10 13:22:53;;;;;;;2.80;1.90;;;;;;;;;;5071894;28;20173;-77
2022/09/10 13:25:33;;;;;;;3.73;1.80;;;;;;;;;;5071959;28;20196;-77
2022/09/10 13:27:59;;;;;;;3.83;2.50;;;;;;;;;;5072907;28;20172;-77
2022/09/10 13:30:26;;;;;;;4.20;2.20;;;;;;;;;;5061855;28;20205;-77
2022/09/10 13:32:57;;;;;;;3.37;2.10;;;;;;;;;;5068536;28;20189;-77
2022/09/10 13:35:43;;;;;;;2.10;1.90;;;;;;;;;;5055172;28;20197;-77
2022/09/10 13:38:27;;;;;;;3.30;2.07;;;;;;;;;;5072723;28;20201;-77
2022/09/10 13:41:05;;;;;;;2.80;2.20;;;;;;;;;;5071129;28;20268;-77
2022/09/10 13:43:54;;;;;;;2.43;2.23;;;;;;;;;;5072728;28;20184;-77
2022/09/10 13:46:34;;;;;;;4.27;2.03;;;;;;;;;;5058513;28;20209;-77
2022/09/10 13:49:05;;;;;;;3.03;2.20;;;;;;;;;;5071072;28;20184;-77
2022/09/10 13:51:38;;;;;;;2.53;2.10;;;;;;;;;;5051208;28;20600;-77
2022/09/10 13:54:07;;;;;;;4.03;1.93;;;;;;;;;;5051530;28;20228;-78
2022/09/10 13:56:34;;;;;;;1.87;1.67;;;;;;;;;;5051068;28;20243;-78
2022/09/10 13:59:02;;;;;;;3.40;2.10;;;;;;;;;;5050969;28;20181;-78
2022/09/10 14:01:46;;;;;;;2.10;1.90;;;;;;;;;;5051164;28;20178;-77
2022/09/10 14:04:22;;;;;;;2.93;1.80;;;;;;;;;;5052313;28;20204;-77
2022/09/10 14:06:48;;;;;;;2.47;2.07;;;;;;;;;;5050266;28;20284;-77
2022/09/10 14:09:14;;;;;;;3.53;2.10;;;;;;;;;;5034370;28;20182;-77
2022/09/10 14:11:41;;;;;;;3.10;2.10;;;;;;;;;;5034728;28;20253;-78
2022/09/10 14:14:13;;;;;;;3.23;2.07;;;;;;;;;;5050870;28;20204;-78
2022/09/10 14:16:52;;;;;;;3.13;2.47;;;;;;;;;;5034402;28;20229;-77
2022/09/10 14:19:19;;;;;;;2.80;1.93;;;;;;;;;;5050708;28;20208;-77
2022/09/10 14:21:53;;;;;;;5.43;2.20;;;;;;;;;;5052153;28;20520;-78
2022/09/10 14:24:30;;;;;;;3.40;1.70;;;;;;;;;;5050781;28;20185;-78
2022/09/10 14:27:05;;;;;;;3.07;1.83;;;;;;;;;;5050607;28;20205;-77
2022/09/10 14:29:31;;;;;;;2.47;1.90;;;;;;;;;;5067523;28;20185;-77
2022/09/10 14:31:58;;;;;;;1.73;1.63;;;;;;;;;;5034275;28;20185;-78
2022/09/10 14:34:25;;;;;;;3.43;2.17;;;;;;;;;;5034554;28;20289;-78
2022/09/10 14:36:51;;;;;;;3.67;2.10;;;;;;;;;;5034660;28;20197;-77
2022/09/10 14:39:19;;;;;;;3.07;2.10;;;;;;;;;;5034077;28;20181;-77
2022/09/10 14:41:45;;;;;;;2.47;2.27;;;;;;;;;;5067598;28;20173;-78
2022/09/10 14:44:14;;;;;;;4.57;2.97;;;;;;;;;;5052184;28;20177;-77
2022/09/10 14:46:48;;;;;;;4.80;2.53;;;;;;;;;;5067553;28;20567;-77
2022/09/10 14:49:16;;;;;;;6.47;2.57;;;;;;;;;;5067641;28;20640;-77
2022/09/10 14:51:42;;;;;;;4.07;2.63;;;;;;;;;;5067468;28;20185;-77
2022/09/10 14:54:10;;;;;;;3.93;2.00;;;;;;;;;;5069200;28;20667;-77
2022/09/10 14:56:38;;;;;;;5.60;2.47;;;;;;;;;;5071149;28;20244;-77
2022/09/10 14:59:10;;;;;;;3.50;2.20;;;;;;;;;;5088098;28;20736;-77
2022/09/10 15:01:36;;;;;;;3.23;2.20;;;;;;;;;;5088215;28;20177;-77
2022/09/10 15:04:03;;;;;;;3.53;2.53;;;;;;;;;;5087809;28;20227;-77
2022/09/10 15:06:30;;;;;;;2.80;2.50;;;;;;;;;;5087764;28;20284;-77
2022/09/10 15:08:56;;;;;;;5.87;2.60;;;;;;;;;;5071105;28;20177;-77
2022/09/10 15:11:23;;;;;;;3.10;2.63;;;;;;;;;;5071570;28;20230;-77
2022/09/10 15:13:50;;;;;;;3.37;2.50;;;;;;;;;;5088093;28;20224;-77
2022/09/10 15:16:16;;;;;;;3.80;2.50;;;;;;;;;;5071199;28;20302;-77